createdAt,value
2022-12-29T00:01:56.584Z,-2.35
2022-12-29T00:04:25.785Z,-2.37
2022-12-29T00:06:55.719Z,-2.45
2022-12-29T00:09:27.756Z,-2.37
2022-12-29T00:11:56.840Z,-2.24
2022-12-29T00:14:43.250Z,-2.29
2022-12-29T00:17:12.391Z,-2.37
2022-12-29T00:19:59.446Z,-2.47
2022-12-29T00:22:46.097Z,-2.46
2022-12-29T00:25:35.133Z,-2.53
2022-12-29T00:28:21.815Z,-2.69
2022-12-29T00:31:08.482Z,-2.78
2022-12-29T00:33:55.100Z,-2.74
2022-12-29T00:36:29.805Z,-2.60
2022-12-29T00:39:22.622Z,-2.38
2022-12-29T00:42:10.634Z,-2.41
2022-12-29T00:44:40.033Z,-2.50
2022-12-29T00:47:09.187Z,-2.60
2022-12-29T00:49:37.498Z,-2.78
2022-12-29T00:52:09.322Z,-2.85
2022-12-29T00:54:40.152Z,-2.87
2022-12-29T00:57:13.236Z,-2.80
2022-12-29T00:59:44.467Z,-2.72
2022-12-29T01:02:14.173Z,-2.85
2022-12-29T01:04:43.503Z,-2.89
2022-12-29T01:07:12.645Z,-2.88
2022-12-29T01:09:59.165Z,-2.95
2022-12-29T01:12:46.119Z,-3.00
2022-12-29T01:15:17.137Z,-2.92
2022-12-29T01:17:47.531Z,-3.06
2022-12-29T01:20:16.970Z,-3.05
2022-12-29T01:22:46.121Z,-3.11
2022-12-29T01:25:15.674Z,-3.01
2022-12-29T01:27:46.630Z,-2.66
2022-12-29T01:30:15.854Z,-2.64
2022-12-29T01:32:45.010Z,-2.73
2022-12-29T01:35:17.112Z,-2.75
2022-12-29T01:37:47.525Z,-2.73
2022-12-29T01:40:17.953Z,-2.79
2022-12-29T01:42:49.617Z,-2.78
2022-12-29T01:45:20.248Z,-2.74
2022-12-29T01:47:55.520Z,-2.61
2022-12-29T01:50:30.906Z,-2.33
2022-12-29T01:53:06.406Z,-2.55
2022-12-29T01:55:42.611Z,-2.63
2022-12-29T01:58:15.842Z,-2.74
2022-12-29T02:00:45.164Z,-2.91
2022-12-29T02:03:14.735Z,-2.98
2022-12-29T02:05:50.074Z,-3.15
2022-12-29T02:08:19.824Z,-3.19
2022-12-29T02:10:50.389Z,-3.15
2022-12-29T02:13:20.955Z,-2.82
2022-12-29T02:16:01.378Z,-2.93
2022-12-29T02:18:43.801Z,-2.88
2022-12-29T02:21:50.353Z,-2.87
2022-12-29T02:25:31.560Z,-2.77
2022-12-29T02:28:19.051Z,-2.69
2022-12-29T02:31:08.376Z,-2.72
2022-12-29T02:33:54.017Z,-2.84
2022-12-29T02:36:31.325Z,-3.00
2022-12-29T02:39:11.549Z,-3.10
2022-12-29T02:41:53.639Z,-3.14
2022-12-29T02:44:35.515Z,-2.84
2022-12-29T02:47:16.549Z,-3.01
2022-12-29T02:49:56.350Z,-3.07
2022-12-29T02:52:32.498Z,-2.97
2022-12-29T02:55:01.132Z,-2.89
2022-12-29T02:57:37.551Z,-2.99
2022-12-29T03:00:11.231Z,-3.13
2022-12-29T03:03:25.024Z,-3.15
2022-12-29T03:06:13.917Z,-3.20
2022-12-29T03:08:51.245Z,-3.28
2022-12-29T03:11:37.972Z,-3.40
2022-12-29T03:14:34.221Z,-3.33
2022-12-29T03:17:11.436Z,-3.33
2022-12-29T03:19:49.913Z,-3.37
2022-12-29T03:22:31.927Z,-3.39
2022-12-29T03:25:11.963Z,-3.41
2022-12-29T03:27:46.905Z,-3.25
2022-12-29T03:30:17.030Z,-3.05
2022-12-29T03:32:51.218Z,-3.19
2022-12-29T03:35:27.182Z,-3.20
2022-12-29T03:38:05.295Z,-3.35
2022-12-29T03:40:36.823Z,-3.51
2022-12-29T03:43:06.941Z,-3.62
2022-12-29T03:45:39.092Z,-3.69
2022-12-29T03:48:08.429Z,-3.76
2022-12-29T03:50:42.064Z,-3.86
2022-12-29T03:53:12.020Z,-3.90
2022-12-29T03:55:42.423Z,-3.91
2022-12-29T03:58:13.067Z,-3.74
2022-12-29T04:01:14.580Z,-3.72
2022-12-29T04:03:43.869Z,-3.65
2022-12-29T04:06:14.834Z,-3.72
2022-12-29T04:08:50.889Z,-3.57
2022-12-29T04:11:20.177Z,-3.60
2022-12-29T04:13:49.514Z,-3.74
2022-12-29T04:16:23.235Z,-3.86
2022-12-29T04:18:53.406Z,-3.94
2022-12-29T04:21:24.930Z,-4.04
2022-12-29T04:23:54.339Z,-3.96
2022-12-29T04:26:23.461Z,-3.79
2022-12-29T04:28:59.549Z,-3.80
2022-12-29T04:31:37.692Z,-3.73
2022-12-29T04:34:07.161Z,-3.70
2022-12-29T04:36:37.851Z,-3.45
2022-12-29T04:39:07.826Z,-3.46
2022-12-29T04:41:38.233Z,-3.37
2022-12-29T04:44:09.706Z,-3.31
2022-12-29T04:47:11.305Z,-3.42
2022-12-29T04:50:18.896Z,-3.49
2022-12-29T04:52:59.055Z,-3.51
2022-12-29T04:55:29.402Z,-3.58
2022-12-29T04:57:58.659Z,-3.65
2022-12-29T05:00:29.346Z,-3.67
2022-12-29T05:03:02.594Z,-3.68
2022-12-29T05:05:32.575Z,-3.69
2022-12-29T05:08:05.639Z,-3.75
2022-12-29T05:10:34.978Z,-3.75
2022-12-29T05:13:13.363Z,-3.54
2022-12-29T05:15:51.354Z,-3.36
2022-12-29T05:18:21.375Z,-3.37
2022-12-29T05:20:51.875Z,-3.36
2022-12-29T05:23:24.568Z,-3.37
2022-12-29T05:26:07.177Z,-3.29
2022-12-29T05:29:09.366Z,-3.29
2022-12-29T05:31:38.660Z,-3.23
2022-12-29T05:34:09.194Z,-3.31
2022-12-29T05:36:38.429Z,-3.27
2022-12-29T05:39:11.625Z,-3.37
2022-12-29T05:41:40.985Z,-3.40
2022-12-29T05:44:35.859Z,-3.32
2022-12-29T05:47:27.183Z,-3.17
2022-12-29T05:50:14.966Z,-3.21
2022-12-29T05:53:02.401Z,-3.28
2022-12-29T05:55:33.031Z,-3.41
2022-12-29T05:58:02.619Z,-3.43
2022-12-29T06:00:31.825Z,-3.50
2022-12-29T06:03:02.158Z,-3.49
2022-12-29T06:05:31.432Z,-3.47
2022-12-29T06:08:00.922Z,-3.30
2022-12-29T06:10:32.143Z,-3.31
2022-12-29T06:13:11.177Z,-3.52
2022-12-29T06:15:45.233Z,-3.68
2022-12-29T06:18:19.616Z,-3.86
2022-12-29T06:20:52.143Z,-3.96
2022-12-29T06:23:21.687Z,-4.11
2022-12-29T06:25:52.439Z,-4.22
2022-12-29T06:28:21.789Z,-4.22
2022-12-29T06:30:51.193Z,-4.29
2022-12-29T06:33:22.061Z,-4.31
2022-12-29T06:35:51.244Z,-4.29
2022-12-29T06:38:20.671Z,-4.34
2022-12-29T06:40:51.191Z,-4.33
2022-12-29T06:43:23.156Z,-4.37
2022-12-29T06:46:21.830Z,-4.27
2022-12-29T06:48:51.349Z,-4.09
2022-12-29T06:51:20.499Z,-3.91
2022-12-29T06:53:50.243Z,-3.75
2022-12-29T06:56:22.456Z,-3.83
2022-12-29T06:58:52.377Z,-3.78
2022-12-29T07:01:21.758Z,-3.82
2022-12-29T07:03:51.479Z,-3.85
2022-12-29T07:06:20.861Z,-3.61
2022-12-29T07:08:50.098Z,-3.57
2022-12-29T07:11:19.635Z,-3.66
2022-12-29T07:13:53.223Z,-3.67
2022-12-29T07:16:23.028Z,-3.66
2022-12-29T07:18:52.732Z,-3.62
2022-12-29T07:21:22.952Z,-3.61
2022-12-29T07:23:53.373Z,-3.52
2022-12-29T07:26:22.915Z,-3.26
2022-12-29T07:28:53.613Z,-3.14
2022-12-29T07:31:25.503Z,-2.98
2022-12-29T07:33:55.139Z,-2.99
2022-12-29T07:36:27.996Z,-2.97
2022-12-29T07:39:00.157Z,-2.72
2022-12-29T07:41:30.169Z,-2.60
2022-12-29T07:44:00.965Z,-2.59
2022-12-29T07:46:59.419Z,-2.54
2022-12-29T07:49:29.771Z,-2.53
2022-12-29T07:51:58.999Z,-2.39
2022-12-29T07:54:28.780Z,-2.04
2022-12-29T07:56:58.595Z,-1.83
2022-12-29T07:59:29.743Z,-1.93
2022-12-29T08:01:59.190Z,-1.99
2022-12-29T08:04:28.678Z,-1.92
2022-12-29T08:06:58.380Z,-2.04
2022-12-29T08:09:27.686Z,-2.07
2022-12-29T08:11:57.545Z,-2.09
2022-12-29T08:14:28.633Z,-2.13
2022-12-29T08:16:57.780Z,-1.95
2022-12-29T08:19:27.389Z,-1.89
2022-12-29T08:21:57.045Z,-1.86
2022-12-29T08:24:26.310Z,-1.86
2022-12-29T08:26:56.085Z,-1.76
2022-12-29T08:29:25.718Z,-1.46
2022-12-29T08:31:56.585Z,-1.31
2022-12-29T08:34:26.253Z,-1.30
2022-12-29T08:36:55.739Z,-1.10
2022-12-29T08:39:25.127Z,-0.94
2022-12-29T08:41:54.245Z,-0.67
2022-12-29T08:44:24.278Z,-0.86
2022-12-29T08:46:55.390Z,-0.78
2022-12-29T08:49:24.859Z,-0.67
2022-12-29T08:51:54.186Z,-0.58
2022-12-29T08:54:24.011Z,-0.48
2022-12-29T08:56:54.804Z,-0.25
2022-12-29T08:59:28.594Z,0.03
2022-12-29T09:02:00.417Z,-0.12
2022-12-29T09:04:30.132Z,-0.03
2022-12-29T09:06:59.527Z,0.17
2022-12-29T09:09:28.613Z,0.30
2022-12-29T09:12:02.964Z,0.43
2022-12-29T09:14:32.177Z,0.40
2022-12-29T09:17:20.404Z,0.61
2022-12-29T09:19:49.749Z,0.92
2022-12-29T09:22:19.011Z,0.94
2022-12-29T09:24:48.275Z,1.00
2022-12-29T09:27:18.104Z,1.12
2022-12-29T09:29:47.719Z,1.22
2022-12-29T09:32:19.028Z,1.46
2022-12-29T09:34:49.373Z,1.53
2022-12-29T09:37:18.665Z,1.66
2022-12-29T09:39:54.114Z,1.68
2022-12-29T09:42:32.188Z,1.70
2022-12-29T09:45:16.338Z,1.91
2022-12-29T09:47:48.449Z,2.03
2022-12-29T09:50:26.863Z,2.22
2022-12-29T09:53:03.773Z,2.30
2022-12-29T09:55:39.175Z,2.37
2022-12-29T09:58:19.702Z,2.36
2022-12-29T10:00:56.245Z,2.46
2022-12-29T10:03:30.396Z,2.64
2022-12-29T10:06:13.000Z,2.73
2022-12-29T10:08:48.701Z,2.87
2022-12-29T10:11:33.291Z,2.89
2022-12-29T10:14:23.048Z,2.93
2022-12-29T10:17:02.735Z,2.93
2022-12-29T10:19:57.109Z,3.21
2022-12-29T10:22:47.711Z,3.23
2022-12-29T10:25:21.506Z,3.40
2022-12-29T10:27:52.962Z,3.44
2022-12-29T10:30:22.652Z,3.58
2022-12-29T10:32:56.348Z,3.71
2022-12-29T10:35:33.162Z,3.82
2022-12-29T10:38:08.107Z,3.85
2022-12-29T10:40:44.696Z,4.07
2022-12-29T10:43:27.780Z,4.12
2022-12-29T10:46:04.459Z,4.26
2022-12-29T10:48:37.693Z,4.39
2022-12-29T10:51:10.927Z,4.65
2022-12-29T10:53:47.990Z,4.82
2022-12-29T10:56:31.764Z,4.88
2022-12-29T10:59:08.470Z,5.10
2022-12-29T11:01:49.130Z,5.22
2022-12-29T11:04:37.869Z,5.32
2022-12-29T11:07:15.901Z,5.43
2022-12-29T11:09:47.221Z,5.58
2022-12-29T11:12:27.337Z,5.73
2022-12-29T11:15:17.515Z,5.88
2022-12-29T11:17:50.465Z,6.07
2022-12-29T11:20:38.732Z,6.21
2022-12-29T11:23:31.198Z,6.37
2022-12-29T11:26:31.780Z,6.46
2022-12-29T11:29:24.287Z,6.57
2022-12-29T11:31:56.562Z,6.63
2022-12-29T11:34:28.757Z,6.70
2022-12-29T11:37:04.779Z,6.81
2022-12-29T11:39:43.332Z,6.83
2022-12-29T11:42:22.593Z,6.86
2022-12-29T11:44:53.742Z,6.97
2022-12-29T11:47:30.063Z,7.10
2022-12-29T11:50:02.828Z,7.16
2022-12-29T11:52:37.412Z,7.27
2022-12-29T11:55:23.289Z,7.29
2022-12-29T11:57:55.504Z,7.45
2022-12-29T12:00:30.293Z,7.57
2022-12-29T12:03:02.196Z,7.69
2022-12-29T12:05:40.916Z,7.67
2022-12-29T12:08:21.317Z,7.68
2022-12-29T12:11:01.154Z,7.75
2022-12-29T12:13:37.460Z,7.76
2022-12-29T12:16:12.126Z,7.78
2022-12-29T12:18:49.420Z,7.90
2022-12-29T12:21:27.559Z,8.04
2022-12-29T12:24:16.368Z,8.10
2022-12-29T12:27:00.997Z,8.22
2022-12-29T12:29:40.074Z,8.40
2022-12-29T12:32:19.597Z,8.54
2022-12-29T12:34:51.233Z,8.71
2022-12-29T12:38:03.012Z,8.91
2022-12-29T12:41:15.511Z,9.36
2022-12-29T12:43:53.989Z,9.93
2022-12-29T12:47:05.098Z,10.35
2022-12-29T12:50:29.285Z,11.04
2022-12-29T12:53:24.597Z,11.66
2022-12-29T12:56:21.719Z,11.77
2022-12-29T12:59:07.326Z,11.94
2022-12-29T13:01:49.123Z,11.85
2022-12-29T13:04:53.365Z,11.74
2022-12-29T13:07:36.643Z,11.71
2022-12-29T13:10:28.374Z,11.73
2022-12-29T13:13:18.909Z,11.77
2022-12-29T13:15:56.799Z,11.72
2022-12-29T13:18:37.580Z,11.85
2022-12-29T13:21:16.934Z,12.09
2022-12-29T13:23:56.972Z,12.66
2022-12-29T13:26:34.713Z,12.88
2022-12-29T13:29:14.831Z,14.06
2022-12-29T13:31:58.013Z,15.49
2022-12-29T13:34:38.840Z,15.77
2022-12-29T13:37:16.105Z,15.80
2022-12-29T13:39:52.474Z,15.15
2022-12-29T13:42:23.568Z,14.30
2022-12-29T13:45:02.001Z,13.59
2022-12-29T13:47:38.981Z,13.40
2022-12-29T13:50:17.834Z,13.33
2022-12-29T13:52:57.900Z,13.47
2022-12-29T13:55:32.052Z,13.60
2022-12-29T13:58:12.033Z,13.92
2022-12-29T14:00:52.044Z,14.50
2022-12-29T14:03:51.520Z,15.74
2022-12-29T14:06:29.228Z,16.12
2022-12-29T14:09:01.581Z,17.03
2022-12-29T14:11:36.780Z,19.20
2022-12-29T14:14:16.027Z,21.03
2022-12-29T14:16:46.956Z,21.16
2022-12-29T14:19:21.775Z,21.01
2022-12-29T14:21:57.570Z,21.56
2022-12-29T14:24:42.168Z,22.16
2022-12-29T14:27:53.639Z,20.91
2022-12-29T14:30:52.678Z,19.63
2022-12-29T14:33:24.786Z,18.94
2022-12-29T14:35:56.650Z,19.79
2022-12-29T14:38:32.646Z,20.56
2022-12-29T14:41:39.142Z,20.82
2022-12-29T14:44:21.516Z,20.67
2022-12-29T14:47:00.254Z,19.34
2022-12-29T14:49:33.830Z,17.02
2022-12-29T14:52:22.516Z,14.42
2022-12-29T14:55:03.701Z,12.61
2022-12-29T14:57:38.687Z,11.12
2022-12-29T15:00:17.930Z,9.97
2022-12-29T15:02:51.920Z,8.74
2022-12-29T15:05:34.778Z,7.95
2022-12-29T15:08:06.745Z,7.57
2022-12-29T15:10:43.225Z,7.11
2022-12-29T15:13:23.469Z,6.58
2022-12-29T15:15:53.849Z,6.20
2022-12-29T15:18:31.216Z,5.78
2022-12-29T15:21:03.317Z,5.32
2022-12-29T15:23:37.061Z,5.01
2022-12-29T15:26:08.778Z,4.92
2022-12-29T15:28:43.639Z,4.65
2022-12-29T15:31:16.525Z,4.41
2022-12-29T15:33:48.850Z,4.21
2022-12-29T15:36:24.666Z,3.91
2022-12-29T15:38:55.571Z,3.77
2022-12-29T15:41:33.379Z,3.65
2022-12-29T15:44:17.729Z,3.34
2022-12-29T15:46:46.954Z,3.11
2022-12-29T15:49:17.477Z,3.09
2022-12-29T15:51:47.311Z,3.07
2022-12-29T15:54:20.725Z,2.97
2022-12-29T15:56:52.271Z,2.91
2022-12-29T15:59:31.390Z,2.62
2022-12-29T16:02:07.127Z,2.47
2022-12-29T16:05:01.650Z,2.29
2022-12-29T16:07:39.130Z,2.29
2022-12-29T16:10:31.445Z,2.19
2022-12-29T16:13:07.807Z,2.00
2022-12-29T16:15:37.162Z,1.89
2022-12-29T16:18:06.655Z,2.11
2022-12-29T16:20:43.410Z,2.05
2022-12-29T16:23:22.331Z,1.94
2022-12-29T16:25:55.635Z,1.88
2022-12-29T16:28:27.615Z,1.96
2022-12-29T16:31:04.589Z,1.86
2022-12-29T16:33:49.851Z,1.74
2022-12-29T16:36:33.109Z,1.61
2022-12-29T16:39:28.236Z,1.47
2022-12-29T16:41:59.439Z,1.37
2022-12-29T16:44:31.344Z,1.28
2022-12-29T16:47:21.702Z,1.21
2022-12-29T16:49:55.271Z,1.08
2022-12-29T16:52:32.319Z,1.15
2022-12-29T16:55:03.323Z,1.01
2022-12-29T16:57:38.529Z,0.96
2022-12-29T17:00:20.479Z,0.99
2022-12-29T17:02:51.455Z,0.98
2022-12-29T17:05:21.496Z,1.03
2022-12-29T17:07:52.367Z,1.18
2022-12-29T17:10:21.729Z,1.15
2022-12-29T17:12:52.397Z,1.24
2022-12-29T17:15:28.557Z,1.38
2022-12-29T17:17:58.553Z,1.42
2022-12-29T17:20:30.689Z,1.28
2022-12-29T17:23:00.802Z,1.24
2022-12-29T17:25:36.113Z,1.10
2022-12-29T17:28:15.052Z,1.03
2022-12-29T17:30:44.493Z,0.90
2022-12-29T17:33:18.261Z,0.78
2022-12-29T17:35:53.237Z,0.73
2022-12-29T17:38:29.723Z,0.59
2022-12-29T17:40:59.867Z,0.72
2022-12-29T17:43:36.758Z,1.06
2022-12-29T17:46:09.140Z,1.09
2022-12-29T17:48:38.639Z,0.85
2022-12-29T17:51:08.354Z,0.65
2022-12-29T17:53:37.520Z,0.66
2022-12-29T17:56:07.548Z,0.55
2022-12-29T17:58:38.122Z,0.51
2022-12-29T18:01:08.386Z,0.36
2022-12-29T18:03:41.977Z,0.40
2022-12-29T18:06:13.414Z,0.42
2022-12-29T18:08:44.069Z,0.54
2022-12-29T18:11:32.069Z,0.41
2022-12-29T18:14:02.693Z,0.23
2022-12-29T18:16:32.320Z,0.33
2022-12-29T18:19:01.485Z,0.55
2022-12-29T18:21:30.669Z,0.38
2022-12-29T18:24:00.135Z,0.30
2022-12-29T18:26:35.591Z,0.29
2022-12-29T18:29:06.322Z,0.44
2022-12-29T18:31:36.764Z,0.46
2022-12-29T18:34:15.783Z,0.33
2022-12-29T18:36:45.088Z,0.19
2022-12-29T18:39:14.182Z,0.06
2022-12-29T18:41:43.402Z,-0.04
2022-12-29T18:44:15.095Z,-0.10
2022-12-29T18:46:44.429Z,-0.01
2022-12-29T18:49:15.159Z,-0.02
2022-12-29T18:51:44.473Z,-0.11
2022-12-29T18:54:29.249Z,-0.01
2022-12-29T18:56:59.482Z,0.13
2022-12-29T18:59:30.203Z,0.13
2022-12-29T19:01:59.427Z,0.27
2022-12-29T19:04:29.802Z,0.22
2022-12-29T19:06:59.432Z,0.24
2022-12-29T19:09:30.784Z,0.12
2022-12-29T19:12:00.063Z,0.06
2022-12-29T19:14:31.508Z,-0.02
2022-12-29T19:17:00.757Z,0.02
2022-12-29T19:19:30.257Z,-0.11
2022-12-29T19:21:59.654Z,-0.17
2022-12-29T19:24:29.999Z,0.10
2022-12-29T19:26:59.392Z,0.04
2022-12-29T19:29:30.721Z,-0.34
2022-12-29T19:32:00.160Z,-0.23
2022-12-29T19:34:31.632Z,-0.15
2022-12-29T19:37:01.378Z,-0.19
2022-12-29T19:39:36.187Z,-0.13
2022-12-29T19:42:05.944Z,-0.14
2022-12-29T19:44:37.021Z,-0.32
2022-12-29T19:47:25.610Z,-0.24
2022-12-29T19:49:58.079Z,-0.24
2022-12-29T19:52:29.932Z,-0.16
2022-12-29T19:55:01.510Z,-0.22
2022-12-29T19:57:32.769Z,-0.24
2022-12-29T20:00:05.086Z,-0.36
2022-12-29T20:02:41.801Z,-0.34
2022-12-29T20:05:12.471Z,-0.33
2022-12-29T20:07:44.997Z,-0.48
2022-12-29T20:10:14.823Z,-0.32
2022-12-29T20:12:44.359Z,-0.39
2022-12-29T20:15:16.546Z,-0.41
2022-12-29T20:20:45.674Z,-0.42
2022-12-29T20:23:15.987Z,-0.53
2022-12-29T20:25:56.279Z,-0.49
2022-12-29T20:28:27.613Z,-0.37
2022-12-29T20:31:01.954Z,-0.43
2022-12-29T20:33:33.787Z,-0.53
2022-12-29T20:36:09.505Z,-0.53
2022-12-29T20:38:40.089Z,-0.55
2022-12-29T20:41:18.159Z,-0.53
2022-12-29T20:43:49.356Z,-0.56
2022-12-29T20:46:32.858Z,-0.54
2022-12-29T20:49:05.460Z,-0.63
2022-12-29T20:52:04.578Z,-0.58
2022-12-29T20:54:26.651Z,-0.47
2022-12-29T20:56:56.246Z,-0.48
2022-12-29T20:59:29.547Z,-0.47
2022-12-29T21:02:01.949Z,-0.55
2022-12-29T21:04:49.942Z,-0.61
2022-12-29T21:07:21.910Z,-0.64
2022-12-29T21:09:51.835Z,-0.61
2022-12-29T21:12:21.390Z,-0.68
2022-12-29T21:14:51.846Z,-0.73
2022-12-29T21:17:22.729Z,-0.56
2022-12-29T21:19:52.665Z,-0.50
2022-12-29T21:22:22.278Z,-0.58
2022-12-29T21:24:54.132Z,-0.32
2022-12-29T21:27:24.197Z,-0.35
2022-12-29T21:29:54.769Z,-0.31
2022-12-29T21:32:25.689Z,-0.36
2022-12-29T21:34:55.769Z,-0.46
2022-12-29T21:37:25.104Z,-0.33
2022-12-29T21:39:55.319Z,-0.48
2022-12-29T21:42:28.976Z,-0.58
2022-12-29T21:45:20.426Z,-0.60
2022-12-29T21:48:10.593Z,-0.71
2022-12-29T21:50:57.830Z,-0.84
2022-12-29T21:53:37.917Z,-0.90
2022-12-29T21:56:11.160Z,-0.98
2022-12-29T21:59:00.458Z,-1.05
2022-12-29T22:01:50.782Z,-1.03
2022-12-29T22:04:43.668Z,-1.07
2022-12-29T22:07:32.086Z,-1.04
2022-12-29T22:10:18.892Z,-1.11
2022-12-29T22:13:01.132Z,-1.14
2022-12-29T22:15:32.937Z,-1.04
2022-12-29T22:18:04.372Z,-0.85
2022-12-29T22:20:37.322Z,-0.89
2022-12-29T22:23:10.027Z,-0.88
2022-12-29T22:25:41.287Z,-0.79
2022-12-29T22:28:10.570Z,-0.65
2022-12-29T22:30:39.731Z,-0.58
2022-12-29T22:33:09.278Z,-0.68
2022-12-29T22:35:39.969Z,-0.87
2022-12-29T22:38:09.117Z,-0.98
2022-12-29T22:40:38.422Z,-0.95
2022-12-29T22:43:12.902Z,-0.96
2022-12-29T22:45:43.034Z,-0.96
2022-12-29T22:48:12.372Z,-0.90
2022-12-29T22:50:43.087Z,-0.94
2022-12-29T22:53:12.586Z,-0.91
2022-12-29T22:55:41.754Z,-0.83
2022-12-29T22:58:10.889Z,-0.87
2022-12-29T23:00:40.221Z,-0.76
2022-12-29T23:03:09.504Z,-0.76
2022-12-29T23:05:38.874Z,-0.86
2022-12-29T23:08:10.935Z,-0.83
2022-12-29T23:10:40.093Z,-0.79
2022-12-29T23:13:09.201Z,-0.93
2022-12-29T23:15:38.573Z,-0.93
2022-12-29T23:18:08.032Z,-0.89
2022-12-29T23:20:37.439Z,-1.10
2022-12-29T23:23:06.686Z,-1.19
2022-12-29T23:25:38.821Z,-1.26
2022-12-29T23:28:10.095Z,-1.35
2022-12-29T23:30:39.232Z,-1.41
2022-12-29T23:33:08.336Z,-1.53
2022-12-29T23:35:37.423Z,-1.60
2022-12-29T23:38:06.643Z,-1.39
2022-12-29T23:40:37.311Z,-1.28
2022-12-29T23:43:06.485Z,-1.29
2022-12-29T23:45:37.297Z,-1.48
2022-12-29T23:48:07.636Z,-1.50
2022-12-29T23:50:40.146Z,-1.50
2022-12-29T23:53:10.604Z,-1.42
2022-12-29T23:55:44.786Z,-1.37
2022-12-29T23:58:13.963Z,-1.12
